Deunquat, Ohio
Current Conditions -  °F | °C
As of 9:53 AM on Monday 22 Dec 2014 (Local Time) from KMNN Reporting Station
Haze Haze  
Wind Chill: 25°   Ceiling: 4200
Heat Index: 32°   Visibility: 4mi
Dew Point: 26°   Wind: 8mph
Humidity: 79%   Direction: 130°SE
Pressure: 30.05"   Gusts: NA
Location:  40.948°N, 83.1346°W
Report Text: KMNN 221453Z AUTO 13007KT 4SM HZ OVC042 00/M03 A3005 RMK AO2 SLP188 T00001033 58006 TSNO
Loading
Personal Weather Stations






























Interactive Weather Map New forecast layout! Learn more

10-Day Weather Forecast

Advertisements
Track Severe Weather on mobile